createdAt,value
2022-10-13T00:02:18.870Z,59.46
2022-10-13T00:05:25.876Z,56.62
2022-10-13T00:08:32.675Z,57.21
2022-10-13T00:11:39.284Z,59.08
2022-10-13T00:14:45.979Z,60.41
2022-10-13T00:17:52.403Z,65.37
2022-10-13T00:20:59.311Z,69.14
2022-10-13T00:24:06.431Z,67.78
2022-10-13T00:27:13.175Z,65.97
2022-10-13T00:30:19.772Z,64.15
2022-10-13T00:33:26.912Z,62.71
2022-10-13T00:36:34.017Z,62.34
2022-10-13T00:39:41.235Z,61.35
2022-10-13T00:42:47.945Z,60.26
2022-10-13T00:45:55.509Z,58.87
2022-10-13T00:49:07.034Z,56.62
2022-10-13T00:52:15.477Z,58.57
2022-10-13T00:55:27.227Z,60.40
2022-10-13T00:58:34.041Z,65.89
2022-10-13T01:01:41.166Z,68.85
2022-10-13T01:04:49.909Z,65.49
2022-10-13T01:07:58.073Z,62.75
2022-10-13T01:11:21.023Z,60.84
2022-10-13T01:14:36.051Z,58.06
2022-10-13T01:17:51.698Z,57.63
2022-10-13T01:21:13.092Z,59.52
2022-10-13T01:24:36.172Z,60.99
2022-10-13T01:27:59.421Z,66.86
2022-10-13T01:31:12.284Z,69.76
2022-10-13T01:34:23.684Z,65.94
2022-10-13T01:37:34.267Z,63.57
2022-10-13T01:40:45.356Z,62.03
2022-10-13T01:43:58.219Z,61.36
2022-10-13T01:47:06.035Z,60.03
2022-10-13T01:50:14.563Z,57.74
2022-10-13T01:53:22.743Z,57.63
2022-10-13T01:56:32.999Z,59.57
2022-10-13T01:59:39.628Z,63.89
2022-10-13T02:02:55.288Z,67.77
2022-10-13T02:06:11.178Z,66.38
2022-10-13T02:09:28.246Z,64.44
2022-10-13T02:12:40.457Z,62.65
2022-10-13T02:15:51.036Z,61.52
2022-10-13T02:18:59.366Z,60.37
2022-10-13T02:22:07.688Z,59.97
2022-10-13T02:25:14.744Z,57.27
2022-10-13T02:28:21.952Z,56.58
2022-10-13T02:31:28.697Z,57.82
2022-10-13T02:34:35.564Z,59.68
2022-10-13T02:37:42.132Z,64.54
2022-10-13T02:40:48.726Z,69.06
2022-10-13T02:43:55.291Z,67.32
2022-10-13T02:47:04.253Z,65.31
2022-10-13T02:50:11.796Z,63.24
2022-10-13T02:53:18.472Z,61.88
2022-10-13T02:56:25.144Z,61.14
2022-10-13T02:59:31.641Z,59.86
2022-10-13T03:02:38.302Z,59.74
2022-10-13T03:05:45.121Z,57.12
2022-10-13T03:08:51.784Z,57.90
2022-10-13T03:11:58.744Z,59.70
2022-10-13T03:15:06.038Z,64.11
2022-10-13T03:18:13.291Z,68.18
2022-10-13T03:21:20.313Z,65.76
2022-10-13T03:24:27.086Z,63.79
2022-10-13T03:27:33.644Z,62.43
2022-10-13T03:30:40.415Z,61.27
2022-10-13T03:33:47.384Z,60.46
2022-10-13T03:36:53.971Z,59.82
2022-10-13T03:40:00.717Z,57.42
2022-10-13T03:43:07.438Z,57.95
2022-10-13T03:46:16.375Z,59.01
2022-10-13T03:49:25.172Z,64.63
2022-10-13T03:52:34.402Z,68.08
2022-10-13T03:55:41.175Z,65.47
2022-10-13T03:58:47.857Z,63.44
2022-10-13T04:01:54.333Z,61.86
2022-10-13T04:05:00.969Z,60.40
2022-10-13T04:08:07.907Z,59.56
2022-10-13T04:11:16.718Z,56.66
2022-10-13T04:14:22.600Z,59.02
2022-10-13T04:17:29.332Z,60.15
2022-10-13T04:20:40.151Z,67.12
2022-10-13T04:23:46.901Z,68.45
2022-10-13T04:26:53.551Z,66.24
2022-10-13T04:30:00.276Z,64.57
2022-10-13T04:33:07.340Z,63.34
2022-10-13T04:36:15.916Z,62.04
2022-10-13T04:39:22.962Z,61.48
2022-10-13T04:42:29.883Z,60.53
2022-10-13T04:45:36.575Z,60.34
2022-10-13T04:48:43.594Z,60.08
2022-10-13T04:51:50.227Z,57.31
2022-10-13T04:54:56.775Z,57.81
2022-10-13T04:58:03.376Z,59.14
2022-10-13T05:01:17.647Z,60.12
2022-10-13T05:04:27.978Z,65.22
2022-10-13T05:07:34.779Z,69.32
2022-10-13T05:10:41.388Z,67.69
2022-10-13T05:13:48.027Z,65.32
2022-10-13T05:16:55.988Z,63.45
2022-10-13T05:20:02.869Z,61.92
2022-10-13T05:23:09.601Z,61.22
2022-10-13T05:26:18.275Z,60.76
2022-10-13T05:29:24.909Z,60.04
2022-10-13T05:32:31.612Z,57.62
2022-10-13T05:35:38.212Z,56.53
2022-10-13T05:38:45.369Z,58.29
2022-10-13T05:41:52.028Z,60.09
2022-10-13T05:45:01.619Z,65.47
2022-10-13T05:48:09.031Z,69.09
2022-10-13T05:51:18.733Z,67.42
2022-10-13T05:54:25.912Z,65.16
2022-10-13T05:57:34.450Z,63.98
2022-10-13T06:00:43.496Z,62.16
2022-10-13T06:03:54.145Z,60.90
2022-10-13T06:07:01.000Z,60.08
2022-10-13T06:10:09.949Z,57.06
2022-10-13T06:13:16.677Z,56.05
2022-10-13T06:16:23.311Z,57.47
2022-10-13T06:19:30.173Z,59.99
2022-10-13T06:22:38.406Z,65.12
2022-10-13T06:25:50.871Z,68.26
2022-10-13T06:28:59.671Z,65.88
2022-10-13T06:32:11.064Z,62.97
2022-10-13T06:35:18.052Z,61.28
2022-10-13T06:38:24.633Z,59.73
2022-10-13T06:41:32.428Z,56.49
2022-10-13T06:44:38.949Z,56.22
2022-10-13T06:47:45.843Z,58.58
2022-10-13T06:50:52.508Z,62.09
2022-10-13T06:53:59.654Z,66.01
2022-10-13T06:57:09.472Z,66.03
2022-10-13T07:00:16.765Z,63.65
2022-10-13T07:03:25.168Z,61.12
2022-10-13T07:06:31.828Z,60.00
2022-10-13T07:09:38.698Z,57.10
2022-10-13T07:12:45.255Z,56.40
2022-10-13T07:15:51.847Z,59.96
2022-10-13T07:18:58.482Z,64.60
2022-10-13T07:22:05.198Z,63.73
2022-10-13T07:25:12.377Z,61.82
2022-10-13T07:28:19.292Z,59.06
2022-10-13T07:31:27.744Z,55.97
2022-10-13T07:34:34.555Z,61.29
2022-10-13T07:37:41.479Z,63.99
2022-10-13T07:40:48.688Z,62.96
2022-10-13T07:43:58.157Z,58.59
2022-10-13T07:47:04.876Z,57.93
2022-10-13T07:50:12.285Z,62.80
2022-10-13T07:53:18.997Z,63.89
2022-10-13T07:56:25.656Z,61.30
2022-10-13T07:59:34.589Z,57.40
2022-10-13T08:02:41.170Z,57.47
2022-10-13T08:05:47.674Z,60.25
2022-10-13T08:08:55.536Z,62.74
2022-10-13T08:12:03.045Z,64.57
2022-10-13T08:15:11.586Z,61.32
2022-10-13T08:18:18.152Z,58.40
2022-10-13T08:21:57.500Z,59.30
2022-10-13T08:24:51.794Z,61.65
2022-10-13T08:28:00.558Z,62.63
2022-10-13T08:31:08.453Z,60.36
2022-10-13T08:34:15.346Z,57.17
2022-10-13T08:37:22.565Z,56.61
2022-10-13T08:40:29.719Z,58.83
2022-10-13T08:43:45.255Z,61.32
2022-10-13T08:47:08.126Z,64.07
2022-10-13T08:50:18.888Z,60.50
2022-10-13T08:53:31.901Z,57.18
2022-10-13T08:56:39.412Z,58.05
2022-10-13T08:59:46.041Z,59.93
2022-10-13T09:02:53.337Z,62.11
2022-10-13T09:06:12.754Z,61.45
2022-10-13T09:09:18.563Z,57.15
2022-10-13T09:12:26.687Z,56.79
2022-10-13T09:15:45.676Z,60.37
2022-10-13T09:18:53.696Z,60.55
2022-10-13T09:22:15.244Z,62.13
2022-10-13T09:25:23.338Z,63.76
2022-10-13T09:28:32.055Z,60.09
2022-10-13T09:31:39.466Z,56.22
2022-10-13T09:34:49.096Z,55.96
2022-10-13T09:38:06.625Z,59.03
2022-10-13T09:41:24.527Z,60.71
2022-10-13T09:44:33.102Z,61.49
2022-10-13T09:47:40.898Z,61.49
2022-10-13T09:50:53.212Z,62.91
2022-10-13T09:54:00.020Z,60.51
2022-10-13T09:57:12.772Z,56.56
2022-10-13T10:00:23.139Z,56.50
2022-10-13T10:03:34.573Z,58.06
2022-10-13T10:06:42.625Z,57.02
2022-10-13T10:09:52.537Z,58.98
2022-10-13T10:12:59.089Z,59.67
2022-10-13T10:16:13.474Z,60.60
2022-10-13T10:19:24.016Z,60.81
2022-10-13T10:22:41.693Z,60.80
2022-10-13T10:25:50.492Z,61.13
2022-10-13T10:29:20.089Z,61.39
2022-10-13T10:32:44.307Z,61.04
2022-10-13T10:35:57.424Z,60.88
2022-10-13T10:39:13.961Z,60.56
2022-10-13T10:42:48.415Z,59.99
2022-10-13T10:46:00.252Z,60.51
2022-10-13T10:49:19.954Z,59.83
2022-10-13T10:52:36.713Z,59.44
2022-10-13T10:55:53.706Z,59.28
2022-10-13T10:59:13.507Z,59.04
2022-10-13T11:02:38.860Z,58.81
2022-10-13T11:06:22.781Z,58.33
2022-10-13T11:10:03.011Z,58.08
2022-10-13T11:13:23.286Z,57.46
2022-10-13T11:16:33.907Z,57.33
2022-10-13T11:19:42.041Z,56.99
2022-10-13T11:23:26.679Z,56.57
2022-10-13T11:26:45.889Z,56.65
2022-10-13T11:30:00.234Z,56.43
2022-10-13T11:33:52.931Z,56.21
2022-10-13T11:37:01.809Z,55.64
2022-10-13T11:40:21.864Z,55.29
2022-10-13T11:43:45.215Z,54.23
2022-10-13T11:47:03.199Z,54.83
2022-10-13T11:50:22.239Z,54.39
2022-10-13T11:53:33.843Z,53.76
2022-10-13T11:56:49.163Z,53.29
2022-10-13T11:59:57.639Z,54.17
2022-10-13T12:03:23.095Z,53.72
2022-10-13T12:06:35.755Z,53.14
2022-10-13T12:09:52.845Z,53.30
2022-10-13T12:13:02.485Z,53.07
2022-10-13T12:16:09.949Z,52.86
2022-10-13T12:19:23.936Z,52.31
2022-10-13T12:22:31.178Z,52.39
2022-10-13T12:25:38.723Z,52.06
2022-10-13T12:28:55.954Z,52.00
2022-10-13T12:32:02.716Z,51.53
2022-10-13T12:35:21.295Z,51.63
2022-10-13T12:38:28.168Z,50.88
2022-10-13T12:41:36.990Z,51.35
2022-10-13T12:44:42.334Z,51.23
2022-10-13T12:47:53.873Z,52.03
2022-10-13T12:51:16.790Z,50.97
2022-10-13T12:54:26.792Z,51.22
2022-10-13T12:57:37.956Z,51.06
2022-10-13T13:00:44.755Z,51.32
2022-10-13T13:03:58.424Z,50.88
2022-10-13T13:07:07.841Z,51.33
2022-10-13T13:10:22.503Z,51.08
2022-10-13T13:13:30.262Z,51.17
2022-10-13T13:16:36.878Z,50.85
2022-10-13T13:19:45.757Z,51.52
2022-10-13T13:22:52.341Z,51.70
2022-10-13T13:26:08.386Z,51.46
2022-10-13T13:29:15.105Z,51.50
2022-10-13T13:32:23.016Z,51.32
2022-10-13T13:35:29.913Z,51.38
2022-10-13T13:38:37.513Z,51.19
2022-10-13T13:41:45.112Z,51.58
2022-10-13T13:44:51.796Z,51.41
2022-10-13T13:48:00.813Z,51.33
2022-10-13T13:51:09.134Z,51.29
2022-10-13T13:54:15.861Z,51.11
2022-10-13T13:57:22.943Z,50.95
2022-10-13T14:00:29.881Z,50.51
2022-10-13T14:03:36.619Z,50.90
2022-10-13T14:06:45.243Z,51.08
2022-10-13T14:09:55.493Z,50.61
2022-10-13T14:13:06.095Z,50.02
2022-10-13T14:16:17.191Z,49.72
2022-10-13T14:19:23.938Z,49.82
2022-10-13T14:22:30.657Z,49.02
2022-10-13T14:25:38.949Z,49.28
2022-10-13T14:28:45.915Z,49.32
2022-10-13T14:31:52.588Z,49.24
2022-10-13T14:34:59.264Z,49.38
2022-10-13T14:38:05.835Z,49.59
2022-10-13T14:41:15.216Z,50.00
2022-10-13T14:44:22.581Z,50.30
2022-10-13T14:47:29.053Z,49.88
2022-10-13T14:50:40.047Z,50.57
2022-10-13T14:53:47.548Z,50.89
2022-10-13T14:56:54.103Z,50.72
2022-10-13T15:00:02.048Z,50.46
2022-10-13T15:03:09.284Z,50.48
2022-10-13T15:06:21.417Z,50.57
2022-10-13T15:09:38.942Z,50.79
2022-10-13T15:12:55.933Z,50.57
2022-10-13T15:16:04.753Z,50.78
2022-10-13T15:19:11.433Z,51.09
2022-10-13T15:22:18.209Z,51.49
2022-10-13T15:25:24.940Z,51.72
2022-10-13T15:28:36.832Z,52.18
2022-10-13T15:31:43.526Z,52.60
2022-10-13T15:34:50.161Z,52.99
2022-10-13T15:37:56.712Z,53.62
2022-10-13T15:41:04.877Z,54.20
2022-10-13T15:44:11.439Z,54.50
2022-10-13T15:47:17.970Z,55.01
2022-10-13T15:50:24.551Z,55.42
2022-10-13T15:53:32.022Z,55.88
2022-10-13T15:56:38.776Z,56.41
2022-10-13T15:59:45.415Z,56.74
2022-10-13T16:02:53.340Z,57.39
2022-10-13T16:06:03.477Z,57.60
2022-10-13T16:09:10.072Z,58.09
2022-10-13T16:12:16.866Z,58.61
2022-10-13T16:15:26.122Z,58.87
2022-10-13T16:18:32.259Z,59.07
2022-10-13T16:21:38.946Z,58.38
2022-10-13T16:24:45.775Z,59.56
2022-10-13T16:27:52.740Z,60.11
2022-10-13T16:31:03.830Z,60.60
2022-10-13T16:34:13.207Z,60.87
2022-10-13T16:37:20.265Z,61.44
2022-10-13T16:40:27.327Z,61.47
2022-10-13T16:43:34.664Z,66.14
2022-10-13T16:46:43.031Z,70.01
2022-10-13T16:49:49.937Z,66.38
2022-10-13T16:52:56.862Z,62.74
2022-10-13T16:56:04.540Z,59.31
2022-10-13T16:59:12.196Z,55.20
2022-10-13T17:02:18.983Z,55.32
2022-10-13T17:05:26.445Z,56.08
2022-10-13T17:08:33.929Z,56.95
2022-10-13T17:11:43.005Z,57.55
2022-10-13T17:14:50.140Z,58.06
2022-10-13T17:17:57.156Z,58.76
2022-10-13T17:21:05.898Z,59.69
2022-10-13T17:24:12.579Z,60.29
2022-10-13T17:27:19.762Z,60.95
2022-10-13T17:30:26.794Z,63.80
2022-10-13T17:33:36.256Z,68.13
2022-10-13T17:36:41.456Z,64.70
2022-10-13T17:39:48.490Z,62.30
2022-10-13T17:42:55.519Z,56.77
2022-10-13T17:46:35.036Z,54.64
2022-10-13T17:49:39.283Z,54.94
2022-10-13T17:52:46.086Z,56.22
2022-10-13T17:55:54.778Z,56.96
2022-10-13T17:59:03.001Z,57.92
2022-10-13T18:02:09.888Z,58.86
2022-10-13T18:05:16.894Z,59.65
2022-10-13T18:08:23.615Z,60.73
2022-10-13T18:11:30.568Z,65.07
2022-10-13T18:14:37.281Z,67.78
2022-10-13T18:17:43.847Z,63.56
2022-10-13T18:20:50.420Z,60.60
2022-10-13T18:23:58.831Z,56.72
2022-10-13T18:27:06.173Z,56.38
2022-10-13T18:30:21.373Z,57.48
2022-10-13T18:33:29.434Z,58.83
2022-10-13T18:36:37.763Z,59.55
2022-10-13T18:39:49.873Z,60.38
2022-10-13T18:42:56.497Z,65.03
2022-10-13T18:46:03.360Z,67.92
2022-10-13T18:49:13.654Z,64.84
2022-10-13T18:52:22.209Z,61.87
2022-10-13T18:55:29.010Z,57.58
2022-10-13T18:58:36.493Z,56.35
2022-10-13T19:01:44.479Z,57.08
2022-10-13T19:04:51.269Z,57.76
2022-10-13T19:07:58.326Z,58.96
2022-10-13T19:11:13.445Z,59.73
2022-10-13T19:14:20.105Z,60.83
2022-10-13T19:17:26.756Z,65.46
2022-10-13T19:20:33.693Z,68.33
2022-10-13T19:23:44.627Z,64.68
2022-10-13T19:27:09.488Z,60.91
2022-10-13T19:30:17.163Z,56.75
2022-10-13T19:33:23.831Z,55.87
2022-10-13T19:36:33.111Z,57.15
2022-10-13T19:39:42.768Z,58.11
2022-10-13T19:42:49.476Z,59.41
2022-10-13T19:45:59.645Z,60.39
2022-10-13T19:49:06.919Z,61.01
2022-10-13T19:52:15.133Z,65.91
2022-10-13T19:55:21.975Z,69.11
2022-10-13T19:58:30.073Z,65.70
2022-10-13T20:01:40.306Z,62.42
2022-10-13T20:05:01.383Z,59.54
2022-10-13T20:08:09.425Z,55.67
2022-10-13T20:11:23.004Z,56.30
2022-10-13T20:14:30.771Z,57.29
2022-10-13T20:17:39.889Z,59.06
2022-10-13T20:20:46.464Z,59.94
2022-10-13T20:23:53.923Z,60.87
2022-10-13T20:27:00.489Z,65.76
2022-10-13T20:30:08.659Z,69.04
2022-10-13T20:33:15.292Z,65.85
2022-10-13T20:36:22.345Z,62.79
2022-10-13T20:39:29.283Z,60.71
2022-10-13T20:42:35.847Z,57.40
2022-10-13T20:45:42.521Z,56.82
2022-10-13T20:52:16.431Z,59.27
2022-10-13T20:55:25.380Z,60.64
2022-10-13T20:58:34.012Z,66.44
2022-10-13T21:01:42.524Z,68.20
2022-10-13T21:04:49.518Z,64.23
2022-10-13T21:07:57.600Z,61.22
2022-10-13T21:11:07.069Z,59.44
2022-10-13T21:14:12.313Z,56.35
2022-10-13T21:17:20.931Z,55.89
2022-10-13T21:20:28.173Z,58.88
2022-10-13T21:23:35.483Z,60.21
2022-10-13T21:26:42.981Z,65.59
2022-10-13T21:29:54.038Z,67.40
2022-10-13T21:33:00.990Z,64.15
2022-10-13T21:36:10.981Z,61.45
2022-10-13T21:39:18.781Z,60.02
2022-10-13T21:42:25.858Z,57.26
2022-10-13T21:45:32.557Z,57.69
2022-10-13T21:48:39.742Z,59.86
2022-10-13T21:51:46.453Z,61.45
2022-10-13T21:54:53.836Z,66.63
2022-10-13T21:58:05.126Z,67.48
2022-10-13T22:01:13.257Z,64.85
2022-10-13T22:04:20.102Z,62.29
2022-10-13T22:07:26.724Z,60.78
2022-10-13T22:10:33.361Z,57.91
2022-10-13T22:13:42.339Z,57.51
2022-10-13T22:16:50.706Z,59.38
2022-10-13T22:19:57.704Z,61.14
2022-10-13T22:23:04.405Z,67.03
2022-10-13T22:26:11.583Z,68.00
2022-10-13T22:29:21.499Z,65.34
2022-10-13T22:32:28.438Z,62.63
2022-10-13T22:35:37.543Z,61.13
2022-10-13T22:38:44.565Z,59.66
2022-10-13T22:41:53.364Z,56.99
2022-10-13T22:45:00.192Z,57.83
2022-10-13T22:48:07.990Z,59.52
2022-10-13T22:51:18.559Z,59.84
2022-10-13T22:54:25.170Z,65.14
2022-10-13T22:57:32.596Z,67.49
2022-10-13T23:00:39.772Z,64.93
2022-10-13T23:03:49.893Z,62.27
2022-10-13T23:06:56.664Z,60.63
2022-10-13T23:10:03.189Z,57.79
2022-10-13T23:13:09.938Z,57.58
2022-10-13T23:16:18.996Z,59.54
2022-10-13T23:19:26.037Z,60.62
2022-10-13T23:22:32.858Z,65.46
2022-10-13T23:25:42.282Z,68.05
2022-10-13T23:28:49.103Z,65.07
2022-10-13T23:31:55.887Z,62.83
2022-10-13T23:35:02.410Z,60.98
2022-10-13T23:38:13.669Z,59.74
2022-10-13T23:41:20.221Z,57.10
2022-10-13T23:44:27.080Z,57.38
2022-10-13T23:47:35.190Z,59.44
2022-10-13T23:50:41.817Z,61.47
2022-10-13T23:53:48.637Z,65.54
2022-10-13T23:56:57.084Z,68.48
